sensor_id;sensor_type;location;lat;lon;timestamp;temperature;humidity
65995;HTU21D;52764;51.036;5.852;2023-05-10T00:01:24;16.55;80.93
65995;HTU21D;52764;51.036;5.852;2023-05-10T00:03:49;16.54;80.89
65995;HTU21D;52764;51.036;5.852;2023-05-10T00:06:15;16.55;80.81
65995;HTU21D;52764;51.036;5.852;2023-05-10T00:08:41;16.56;80.64
65995;HTU21D;52764;51.036;5.852;2023-05-10T00:11:07;16.56;80.59
65995;HTU21D;52764;51.036;5.852;2023-05-10T00:13:32;16.58;80.64
65995;HTU21D;52764;51.036;5.852;2023-05-10T00:15:58;16.57;80.50
65995;HTU21D;52764;51.036;5.852;2023-05-10T00:18:24;16.56;80.43
65995;HTU21D;52764;51.036;5.852;2023-05-10T00:20:50;16.60;80.31
65995;HTU21D;52764;51.036;5.852;2023-05-10T00:23:15;16.60;80.42
65995;HTU21D;52764;51.036;5.852;2023-05-10T00:25:41;16.59;80.49
65995;HTU21D;52764;51.036;5.852;2023-05-10T00:28:07;16.59;80.51
65995;HTU21D;52764;51.036;5.852;2023-05-10T00:30:33;16.60;80.47
65995;HTU21D;52764;51.036;5.852;2023-05-10T00:32:58;16.59;80.40
65995;HTU21D;52764;51.036;5.852;2023-05-10T00:35:25;16.59;80.52
65995;HTU21D;52764;51.036;5.852;2023-05-10T00:37:51;16.59;80.44
65995;HTU21D;52764;51.036;5.852;2023-05-10T00:40:17;16.60;80.36
65995;HTU21D;52764;51.036;5.852;2023-05-10T00:42:47;16.60;80.44
65995;HTU21D;52764;51.036;5.852;2023-05-10T00:45:13;16.60;80.36
65995;HTU21D;52764;51.036;5.852;2023-05-10T00:47:39;16.61;80.36
65995;HTU21D;52764;51.036;5.852;2023-05-10T00:50:05;16.61;80.52
65995;HTU21D;52764;51.036;5.852;2023-05-10T00:52:32;16.62;80.49
65995;HTU21D;52764;51.036;5.852;2023-05-10T00:54:58;16.62;80.34
65995;HTU21D;52764;51.036;5.852;2023-05-10T00:57:24;16.64;79.99
65995;HTU21D;52764;51.036;5.852;2023-05-10T00:59:50;16.64;80.12
65995;HTU21D;52764;51.036;5.852;2023-05-10T01:02:16;16.67;80.00
65995;HTU21D;52764;51.036;5.852;2023-05-10T01:04:43;16.71;79.76
65995;HTU21D;52764;51.036;5.852;2023-05-10T01:07:09;16.71;79.79
65995;HTU21D;52764;51.036;5.852;2023-05-10T01:09:35;16.72;79.80
65995;HTU21D;52764;51.036;5.852;2023-05-10T01:12:01;16.74;79.73
65995;HTU21D;52764;51.036;5.852;2023-05-10T01:14:29;16.74;79.80
65995;HTU21D;52764;51.036;5.852;2023-05-10T01:16:56;16.73;79.78
65995;HTU21D;52764;51.036;5.852;2023-05-10T01:19:27;16.74;79.62
65995;HTU21D;52764;51.036;5.852;2023-05-10T01:36:01;16.72;79.78
65995;HTU21D;52764;51.036;5.852;2023-05-10T01:46:40;16.66;79.69
65995;HTU21D;52764;51.036;5.852;2023-05-10T01:49:17;16.66;79.70
65995;HTU21D;52764;51.036;5.852;2023-05-10T01:51:51;16.70;79.65
65995;HTU21D;52764;51.036;5.852;2023-05-10T01:54:21;16.71;79.53
65995;HTU21D;52764;51.036;5.852;2023-05-10T01:57:02;16.70;79.30
65995;HTU21D;52764;51.036;5.852;2023-05-10T01:59:34;16.72;79.12
65995;HTU21D;52764;51.036;5.852;2023-05-10T02:02:07;16.73;79.21
65995;HTU21D;52764;51.036;5.852;2023-05-10T02:04:39;16.76;79.24
65995;HTU21D;52764;51.036;5.852;2023-05-10T02:07:08;16.75;79.08
65995;HTU21D;52764;51.036;5.852;2023-05-10T02:09:37;16.74;78.94
65995;HTU21D;52764;51.036;5.852;2023-05-10T02:12:06;16.74;78.81
65995;HTU21D;52764;51.036;5.852;2023-05-10T02:14:36;16.74;78.94
65995;HTU21D;52764;51.036;5.852;2023-05-10T02:17:05;16.74;78.92
65995;HTU21D;52764;51.036;5.852;2023-05-10T02:19:32;16.76;78.86
65995;HTU21D;52764;51.036;5.852;2023-05-10T02:22:00;16.76;78.88
65995;HTU21D;52764;51.036;5.852;2023-05-10T02:24:28;16.77;78.82
65995;HTU21D;52764;51.036;5.852;2023-05-10T02:26:56;16.78;78.82
65995;HTU21D;52764;51.036;5.852;2023-05-10T02:29:25;16.73;78.95
65995;HTU21D;52764;51.036;5.852;2023-05-10T02:31:54;16.73;78.89
65995;HTU21D;52764;51.036;5.852;2023-05-10T02:34:23;16.73;78.79
65995;HTU21D;52764;51.036;5.852;2023-05-10T02:36:52;16.70;78.69
65995;HTU21D;52764;51.036;5.852;2023-05-10T02:39:20;16.71;78.64
65995;HTU21D;52764;51.036;5.852;2023-05-10T02:41:48;16.71;78.34
65995;HTU21D;52764;51.036;5.852;2023-05-10T02:44:17;16.69;78.08
65995;HTU21D;52764;51.036;5.852;2023-05-10T02:46:44;16.63;78.01
65995;HTU21D;52764;51.036;5.852;2023-05-10T02:49:10;16.57;78.14
65995;HTU21D;52764;51.036;5.852;2023-05-10T02:51:42;16.59;78.19
65995;HTU21D;52764;51.036;5.852;2023-05-10T02:54:15;16.56;77.97
65995;HTU21D;52764;51.036;5.852;2023-05-10T02:56:51;16.57;77.83
65995;HTU21D;52764;51.036;5.852;2023-05-10T02:59:19;16.55;77.83
65995;HTU21D;52764;51.036;5.852;2023-05-10T03:01:45;16.54;77.92
65995;HTU21D;52764;51.036;5.852;2023-05-10T03:04:11;16.56;77.98
65995;HTU21D;52764;51.036;5.852;2023-05-10T03:06:37;16.55;77.72
65995;HTU21D;52764;51.036;5.852;2023-05-10T03:09:03;16.49;77.58
65995;HTU21D;52764;51.036;5.852;2023-05-10T03:14:11;16.52;77.34
65995;HTU21D;52764;51.036;5.852;2023-05-10T03:16:56;16.50;77.43
65995;HTU21D;52764;51.036;5.852;2023-05-10T03:19:52;16.51;77.51
65995;HTU21D;52764;51.036;5.852;2023-05-10T03:22:30;16.47;77.56
65995;HTU21D;52764;51.036;5.852;2023-05-10T03:24:57;16.46;77.61
65995;HTU21D;52764;51.036;5.852;2023-05-10T03:27:29;16.45;77.62
65995;HTU21D;52764;51.036;5.852;2023-05-10T03:29:57;16.47;77.57
65995;HTU21D;52764;51.036;5.852;2023-05-10T03:32:23;16.51;77.61
65995;HTU21D;52764;51.036;5.852;2023-05-10T03:34:49;16.56;77.50
65995;HTU21D;52764;51.036;5.852;2023-05-10T03:37:14;16.57;77.37
65995;HTU21D;52764;51.036;5.852;2023-05-10T03:39:40;16.56;77.34
65995;HTU21D;52764;51.036;5.852;2023-05-10T03:42:08;16.57;77.25
65995;HTU21D;52764;51.036;5.852;2023-05-10T03:44:40;16.58;77.16
65995;HTU21D;52764;51.036;5.852;2023-05-10T03:47:06;16.57;77.20
65995;HTU21D;52764;51.036;5.852;2023-05-10T03:49:32;16.57;77.24
65995;HTU21D;52764;51.036;5.852;2023-05-10T03:51:58;16.60;77.15
65995;HTU21D;52764;51.036;5.852;2023-05-10T03:54:24;16.60;76.98
65995;HTU21D;52764;51.036;5.852;2023-05-10T03:56:49;16.59;76.91
65995;HTU21D;52764;51.036;5.852;2023-05-10T03:59:17;16.59;76.91
65995;HTU21D;52764;51.036;5.852;2023-05-10T04:01:42;16.58;77.78
65995;HTU21D;52764;51.036;5.852;2023-05-10T04:04:08;16.57;76.93
65995;HTU21D;52764;51.036;5.852;2023-05-10T04:06:34;16.51;76.85
65995;HTU21D;52764;51.036;5.852;2023-05-10T04:09:00;16.48;76.95
65995;HTU21D;52764;51.036;5.852;2023-05-10T04:11:29;16.44;77.17
65995;HTU21D;52764;51.036;5.852;2023-05-10T04:13:55;16.46;77.12
65995;HTU21D;52764;51.036;5.852;2023-05-10T04:16:20;16.43;77.31
65995;HTU21D;52764;51.036;5.852;2023-05-10T04:18:46;16.40;77.51
65995;HTU21D;52764;51.036;5.852;2023-05-10T04:21:12;16.45;77.37
65995;HTU21D;52764;51.036;5.852;2023-05-10T04:23:39;16.42;77.44
65995;HTU21D;52764;51.036;5.852;2023-05-10T04:26:05;16.42;77.47
65995;HTU21D;52764;51.036;5.852;2023-05-10T04:28:30;16.42;77.35
65995;HTU21D;52764;51.036;5.852;2023-05-10T04:31:04;16.44;77.31
65995;HTU21D;52764;51.036;5.852;2023-05-10T04:33:30;16.46;77.38
65995;HTU21D;52764;51.036;5.852;2023-05-10T04:35:56;16.49;77.21
65995;HTU21D;52764;51.036;5.852;2023-05-10T04:38:22;16.52;77.05
65995;HTU21D;52764;51.036;5.852;2023-05-10T04:40:48;16.57;76.92
65995;HTU21D;52764;51.036;5.852;2023-05-10T04:43:14;16.61;76.83
65995;HTU21D;52764;51.036;5.852;2023-05-10T04:45:39;16.61;76.79
65995;HTU21D;52764;51.036;5.852;2023-05-10T04:48:05;16.62;76.76
65995;HTU21D;52764;51.036;5.852;2023-05-10T04:50:31;16.62;76.81
65995;HTU21D;52764;51.036;5.852;2023-05-10T04:52:57;16.65;76.82
65995;HTU21D;52764;51.036;5.852;2023-05-10T04:55:23;16.67;76.79
65995;HTU21D;52764;51.036;5.852;2023-05-10T04:57:48;16.67;76.79
65995;HTU21D;52764;51.036;5.852;2023-05-10T05:00:15;16.63;77.02
65995;HTU21D;52764;51.036;5.852;2023-05-10T05:02:44;16.59;77.38
65995;HTU21D;52764;51.036;5.852;2023-05-10T05:05:11;16.56;77.49
65995;HTU21D;52764;51.036;5.852;2023-05-10T05:07:37;16.56;77.52
65995;HTU21D;52764;51.036;5.852;2023-05-10T05:10:08;16.57;77.61
65995;HTU21D;52764;51.036;5.852;2023-05-10T05:12:34;16.58;77.60
65995;HTU21D;52764;51.036;5.852;2023-05-10T05:15:00;16.61;77.52
65995;HTU21D;52764;51.036;5.852;2023-05-10T05:17:26;16.63;77.60
65995;HTU21D;52764;51.036;5.852;2023-05-10T05:19:52;16.66;77.62
65995;HTU21D;52764;51.036;5.852;2023-05-10T05:22:18;16.66;77.24
65995;HTU21D;52764;51.036;5.852;2023-05-10T05:24:45;16.69;77.05
65995;HTU21D;52764;51.036;5.852;2023-05-10T05:27:11;17.11;77.04
65995;HTU21D;52764;51.036;5.852;2023-05-10T05:29:36;16.73;76.91
65995;HTU21D;52764;51.036;5.852;2023-05-10T05:32:02;16.71;76.85
65995;HTU21D;52764;51.036;5.852;2023-05-10T05:34:28;16.67;76.76
65995;HTU21D;52764;51.036;5.852;2023-05-10T05:36:54;16.62;76.71
65995;HTU21D;52764;51.036;5.852;2023-05-10T05:39:19;16.50;76.92
65995;HTU21D;52764;51.036;5.852;2023-05-10T05:41:45;16.39;77.12
65995;HTU21D;52764;51.036;5.852;2023-05-10T05:44:11;16.34;77.47
65995;HTU21D;52764;51.036;5.852;2023-05-10T05:46:37;16.33;77.64
65995;HTU21D;52764;51.036;5.852;2023-05-10T05:49:03;16.37;77.65
65995;HTU21D;52764;51.036;5.852;2023-05-10T05:51:29;16.37;77.71
65995;HTU21D;52764;51.036;5.852;2023-05-10T05:53:55;16.35;77.76
65995;HTU21D;52764;51.036;5.852;2023-05-10T05:56:20;16.33;77.74
65995;HTU21D;52764;51.036;5.852;2023-05-10T05:58:52;16.32;77.53
65995;HTU21D;52764;51.036;5.852;2023-05-10T06:01:18;16.32;77.54
65995;HTU21D;52764;51.036;5.852;2023-05-10T06:03:44;16.40;77.46
65995;HTU21D;52764;51.036;5.852;2023-05-10T06:06:10;16.46;77.40
65995;HTU21D;52764;51.036;5.852;2023-05-10T06:08:35;16.50;76.90
65995;HTU21D;52764;51.036;5.852;2023-05-10T06:11:01;16.57;76.87
65995;HTU21D;52764;51.036;5.852;2023-05-10T06:13:27;16.65;76.89
65995;HTU21D;52764;51.036;5.852;2023-05-10T06:15:58;16.72;76.95
65995;HTU21D;52764;51.036;5.852;2023-05-10T06:18:24;16.78;76.76
65995;HTU21D;52764;51.036;5.852;2023-05-10T06:20:50;16.85;76.52
65995;HTU21D;52764;51.036;5.852;2023-05-10T06:23:16;16.92;76.31
65995;HTU21D;52764;51.036;5.852;2023-05-10T06:25:41;16.96;75.99
65995;HTU21D;52764;51.036;5.852;2023-05-10T06:28:07;16.96;75.41
65995;HTU21D;52764;51.036;5.852;2023-05-10T06:30:32;16.95;75.39
65995;HTU21D;52764;51.036;5.852;2023-05-10T06:32:58;17.02;75.23
65995;HTU21D;52764;51.036;5.852;2023-05-10T06:35:24;16.98;75.25
65995;HTU21D;52764;51.036;5.852;2023-05-10T06:37:50;16.96;74.98
65995;HTU21D;52764;51.036;5.852;2023-05-10T06:40:17;16.94;75.24
65995;HTU21D;52764;51.036;5.852;2023-05-10T06:42:43;16.90;75.25
65995;HTU21D;52764;51.036;5.852;2023-05-10T06:45:10;16.86;75.63
65995;HTU21D;52764;51.036;5.852;2023-05-10T06:47:36;16.93;76.07
65995;HTU21D;52764;51.036;5.852;2023-05-10T06:50:02;17.10;76.02
65995;HTU21D;52764;51.036;5.852;2023-05-10T06:52:28;17.22;76.02
65995;HTU21D;52764;51.036;5.852;2023-05-10T06:54:54;17.33;76.00
65995;HTU21D;52764;51.036;5.852;2023-05-10T06:57:19;17.40;75.38
65995;HTU21D;52764;51.036;5.852;2023-05-10T06:59:46;17.47;74.95
65995;HTU21D;52764;51.036;5.852;2023-05-10T07:02:11;17.54;74.84
65995;HTU21D;52764;51.036;5.852;2023-05-10T07:04:37;17.62;74.41
65995;HTU21D;52764;51.036;5.852;2023-05-10T07:07:03;17.62;73.97
65995;HTU21D;52764;51.036;5.852;2023-05-10T07:09:29;17.65;73.77
65995;HTU21D;52764;51.036;5.852;2023-05-10T07:11:55;17.74;73.83
65995;HTU21D;52764;51.036;5.852;2023-05-10T07:14:22;17.82;73.64
65995;HTU21D;52764;51.036;5.852;2023-05-10T07:16:48;17.84;73.06
65995;HTU21D;52764;51.036;5.852;2023-05-10T07:19:14;17.91;73.06
65995;HTU21D;52764;51.036;5.852;2023-05-10T07:21:40;17.98;73.10
65995;HTU21D;52764;51.036;5.852;2023-05-10T07:24:07;18.03;72.93
65995;HTU21D;52764;51.036;5.852;2023-05-10T07:26:33;18.05;72.61
65995;HTU21D;52764;51.036;5.852;2023-05-10T07:28:59;18.05;72.25
65995;HTU21D;52764;51.036;5.852;2023-05-10T07:31:24;18.00;72.46
65995;HTU21D;52764;51.036;5.852;2023-05-10T07:33:50;17.95;72.21
65995;HTU21D;52764;51.036;5.852;2023-05-10T07:36:16;17.92;72.10
65995;HTU21D;52764;51.036;5.852;2023-05-10T07:38:42;17.91;72.24
65995;HTU21D;52764;51.036;5.852;2023-05-10T07:41:07;17.94;72.14
65995;HTU21D;52764;51.036;5.852;2023-05-10T07:43:33;17.96;72.09
65995;HTU21D;52764;51.036;5.852;2023-05-10T07:45:59;17.95;72.22
65995;HTU21D;52764;51.036;5.852;2023-05-10T07:48:25;17.94;72.24
65995;HTU21D;52764;51.036;5.852;2023-05-10T07:50:51;17.91;72.26
65995;HTU21D;52764;51.036;5.852;2023-05-10T07:53:17;17.91;72.10
65995;HTU21D;52764;51.036;5.852;2023-05-10T07:55:44;17.89;72.03
65995;HTU21D;52764;51.036;5.852;2023-05-10T07:58:10;17.93;71.97
65995;HTU21D;52764;51.036;5.852;2023-05-10T08:00:36;17.94;71.67
65995;HTU21D;52764;51.036;5.852;2023-05-10T08:03:04;17.94;71.67
65995;HTU21D;52764;51.036;5.852;2023-05-10T08:05:30;17.97;71.58
65995;HTU21D;52764;51.036;5.852;2023-05-10T08:07:56;17.98;71.61
65995;HTU21D;52764;51.036;5.852;2023-05-10T08:10:22;18.00;71.62
65995;HTU21D;52764;51.036;5.852;2023-05-10T08:12:47;18.10;71.69
65995;HTU21D;52764;51.036;5.852;2023-05-10T08:15:13;18.17;71.40
65995;HTU21D;52764;51.036;5.852;2023-05-10T08:17:39;18.20;71.16
65995;HTU21D;52764;51.036;5.852;2023-05-10T08:20:05;18.26;70.88
65995;HTU21D;52764;51.036;5.852;2023-05-10T08:22:31;18.34;70.44
65995;HTU21D;52764;51.036;5.852;2023-05-10T08:24:56;18.33;69.94
65995;HTU21D;52764;51.036;5.852;2023-05-10T08:27:22;18.27;69.65
65995;HTU21D;52764;51.036;5.852;2023-05-10T08:29:48;18.24;69.50
65995;HTU21D;52764;51.036;5.852;2023-05-10T08:32:13;18.24;69.59
65995;HTU21D;52764;51.036;5.852;2023-05-10T08:34:39;18.23;69.68
65995;HTU21D;52764;51.036;5.852;2023-05-10T08:37:05;18.20;69.36
65995;HTU21D;52764;51.036;5.852;2023-05-10T08:39:34;18.17;69.45
65995;HTU21D;52764;51.036;5.852;2023-05-10T08:42:03;18.15;69.61
65995;HTU21D;52764;51.036;5.852;2023-05-10T08:44:32;18.19;69.71
65995;HTU21D;52764;51.036;5.852;2023-05-10T08:47:04;18.27;69.86
65995;HTU21D;52764;51.036;5.852;2023-05-10T08:49:31;18.41;69.91
65995;HTU21D;52764;51.036;5.852;2023-05-10T08:52:02;18.56;69.88
65995;HTU21D;52764;51.036;5.852;2023-05-10T08:54:31;18.65;69.95
65995;HTU21D;52764;51.036;5.852;2023-05-10T08:56:56;18.67;69.44
65995;HTU21D;52764;51.036;5.852;2023-05-10T08:59:22;18.69;69.37
65995;HTU21D;52764;51.036;5.852;2023-05-10T09:01:50;18.69;69.19
65995;HTU21D;52764;51.036;5.852;2023-05-10T09:04:16;18.70;69.36
65995;HTU21D;52764;51.036;5.852;2023-05-10T09:06:42;18.80;69.65
65995;HTU21D;52764;51.036;5.852;2023-05-10T09:09:08;18.96;69.33
65995;HTU21D;52764;51.036;5.852;2023-05-10T09:11:34;19.16;69.03
65995;HTU21D;52764;51.036;5.852;2023-05-10T09:14:01;19.39;68.40
65995;HTU21D;52764;51.036;5.852;2023-05-10T09:16:26;19.58;67.38
65995;HTU21D;52764;51.036;5.852;2023-05-10T09:18:52;19.79;66.59
65995;HTU21D;52764;51.036;5.852;2023-05-10T09:21:20;20.03;65.69
65995;HTU21D;52764;51.036;5.852;2023-05-10T09:23:46;20.27;64.66
65995;HTU21D;52764;51.036;5.852;2023-05-10T09:26:12;20.50;71.16
65995;HTU21D;52764;51.036;5.852;2023-05-10T09:28:54;20.79;63.60
65995;HTU21D;52764;51.036;5.852;2023-05-10T09:31:22;20.98;62.54
65995;HTU21D;52764;51.036;5.852;2023-05-10T09:33:48;21.06;62.48
65995;HTU21D;52764;51.036;5.852;2023-05-10T09:36:15;21.09;62.60
65995;HTU21D;52764;51.036;5.852;2023-05-10T09:38:49;21.22;62.70
65995;HTU21D;52764;51.036;5.852;2023-05-10T09:41:22;21.34;62.07
65995;HTU21D;52764;51.036;5.852;2023-05-10T09:43:48;21.48;61.25
65995;HTU21D;52764;51.036;5.852;2023-05-10T09:46:17;21.54;61.40
65995;HTU21D;52764;51.036;5.852;2023-05-10T09:48:47;21.58;60.89
65995;HTU21D;52764;51.036;5.852;2023-05-10T09:51:23;21.64;61.44
65995;HTU21D;52764;51.036;5.852;2023-05-10T09:54:09;21.68;61.29
65995;HTU21D;52764;51.036;5.852;2023-05-10T09:56:36;21.70;61.48
65995;HTU21D;52764;51.036;5.852;2023-05-10T09:59:05;21.72;61.14
65995;HTU21D;52764;51.036;5.852;2023-05-10T10:01:31;21.60;60.89
65995;HTU21D;52764;51.036;5.852;2023-05-10T10:03:58;21.58;61.59
65995;HTU21D;52764;51.036;5.852;2023-05-10T10:06:24;21.62;62.05
65995;HTU21D;52764;51.036;5.852;2023-05-10T10:08:50;21.55;61.09
65995;HTU21D;52764;51.036;5.852;2023-05-10T10:11:16;2.14;61.29
65995;HTU21D;52764;51.036;5.852;2023-05-10T10:13:43;21.58;61.46
65995;HTU21D;52764;51.036;5.852;2023-05-10T10:16:09;21.58;61.07
65995;HTU21D;52764;51.036;5.852;2023-05-10T10:18:38;21.55;61.52
65995;HTU21D;52764;51.036;5.852;2023-05-10T10:21:07;21.59;61.56
65995;HTU21D;52764;51.036;5.852;2023-05-10T10:23:36;21.64;61.10
65995;HTU21D;52764;51.036;5.852;2023-05-10T10:26:05;21.77;61.17
65995;HTU21D;52764;51.036;5.852;2023-05-10T10:31:32;22.09;59.24
65995;HTU21D;52764;51.036;5.852;2023-05-10T10:34:10;22.23;59.24
65995;HTU21D;52764;51.036;5.852;2023-05-10T10:36:46;22.47;58.87
65995;HTU21D;52764;51.036;5.852;2023-05-10T10:39:15;22.79;58.20
65995;HTU21D;52764;51.036;5.852;2023-05-10T10:41:58;23.23;58.04
65995;HTU21D;52764;51.036;5.852;2023-05-10T10:44:26;23.50;56.87
65995;HTU21D;52764;51.036;5.852;2023-05-10T10:49:43;23.71;54.75
65995;HTU21D;52764;51.036;5.852;2023-05-10T10:54:39;23.65;54.18
65995;HTU21D;52764;51.036;5.852;2023-05-10T10:57:12;23.50;53.84
65995;HTU21D;52764;51.036;5.852;2023-05-10T10:59:42;23.46;53.99
65995;HTU21D;52764;51.036;5.852;2023-05-10T11:02:48;23.34;54.54
65995;HTU21D;52764;51.036;5.852;2023-05-10T11:05:24;23.35;54.34
65995;HTU21D;52764;51.036;5.852;2023-05-10T11:07:52;23.37;54.30
65995;HTU21D;52764;51.036;5.852;2023-05-10T11:10:22;23.28;54.14
65995;HTU21D;52764;51.036;5.852;2023-05-10T11:13:01;23.17;54.26
65995;HTU21D;52764;51.036;5.852;2023-05-10T11:15:31;23.12;54.16
65995;HTU21D;52764;51.036;5.852;2023-05-10T11:17:58;23.09;53.93
65995;HTU21D;52764;51.036;5.852;2023-05-10T11:20:27;23.10;54.26
65995;HTU21D;52764;51.036;5.852;2023-05-10T11:23:13;23.15;54.07
65995;HTU21D;52764;51.036;5.852;2023-05-10T11:25:45;23.11;53.99
65995;HTU21D;52764;51.036;5.852;2023-05-10T11:28:12;23.15;53.61
65995;HTU21D;52764;51.036;5.852;2023-05-10T11:30:44;23.13;53.34
65995;HTU21D;52764;51.036;5.852;2023-05-10T11:33:15;23.18;53.59
65995;HTU21D;52764;51.036;5.852;2023-05-10T11:35:41;23.22;53.72
65995;HTU21D;52764;51.036;5.852;2023-05-10T11:38:08;23.18;53.64
65995;HTU21D;52764;51.036;5.852;2023-05-10T11:40:35;23.16;53.23
65995;HTU21D;52764;51.036;5.852;2023-05-10T11:43:02;23.23;53.44
65995;HTU21D;52764;51.036;5.852;2023-05-10T11:45:32;23.37;53.18
65995;HTU21D;52764;51.036;5.852;2023-05-10T11:47:59;23.45;52.73
65995;HTU21D;52764;51.036;5.852;2023-05-10T11:50:25;23.40;52.84
65995;HTU21D;52764;51.036;5.852;2023-05-10T11:52:52;23.44;53.64
65995;HTU21D;52764;51.036;5.852;2023-05-10T11:55:19;23.47;52.49
65995;HTU21D;52764;51.036;5.852;2023-05-10T11:57:44;23.52;52.95
65995;HTU21D;52764;51.036;5.852;2023-05-10T12:00:13;23.57;52.36
65995;HTU21D;52764;51.036;5.852;2023-05-10T12:02:41;23.62;52.02
65995;HTU21D;52764;51.036;5.852;2023-05-10T12:05:07;23.60;51.48
65995;HTU21D;52764;51.036;5.852;2023-05-10T12:07:33;23.50;51.77
65995;HTU21D;52764;51.036;5.852;2023-05-10T12:10:10;23.46;51.91
65995;HTU21D;52764;51.036;5.852;2023-05-10T12:12:41;23.35;52.02
65995;HTU21D;52764;51.036;5.852;2023-05-10T12:15:12;23.34;53.07
65995;HTU21D;52764;51.036;5.852;2023-05-10T12:17:39;23.37;53.10
65995;HTU21D;52764;51.036;5.852;2023-05-10T12:20:19;27.84;53.02
65995;HTU21D;52764;51.036;5.852;2023-05-10T12:22:56;23.54;52.53
65995;HTU21D;52764;51.036;5.852;2023-05-10T12:25:23;23.52;51.90
65995;HTU21D;52764;51.036;5.852;2023-05-10T12:27:55;24.34;52.15
65995;HTU21D;52764;51.036;5.852;2023-05-10T12:30:22;23.69;52.08
65995;HTU21D;52764;51.036;5.852;2023-05-10T12:32:49;23.75;51.58
65995;HTU21D;52764;51.036;5.852;2023-05-10T12:35:15;23.77;51.55
65995;HTU21D;52764;51.036;5.852;2023-05-10T12:37:44;23.74;51.37
65995;HTU21D;52764;51.036;5.852;2023-05-10T12:40:11;23.70;51.10
65995;HTU21D;52764;51.036;5.852;2023-05-10T12:42:38;23.73;51.55
65995;HTU21D;52764;51.036;5.852;2023-05-10T12:45:05;23.82;51.59
65995;HTU21D;52764;51.036;5.852;2023-05-10T12:47:32;23.92;51.31
65995;HTU21D;52764;51.036;5.852;2023-05-10T12:49:59;23.98;51.24
65995;HTU21D;52764;51.036;5.852;2023-05-10T12:52:25;24.04;51.21
65995;HTU21D;52764;51.036;5.852;2023-05-10T12:54:52;24.14;50.88
65995;HTU21D;52764;51.036;5.852;2023-05-10T12:57:19;24.21;50.76
65995;HTU21D;52764;51.036;5.852;2023-05-10T12:59:45;24.20;50.54
65995;HTU21D;52764;51.036;5.852;2023-05-10T13:02:11;24.23;50.08
65995;HTU21D;52764;51.036;5.852;2023-05-10T13:04:37;24.20;49.73
65995;HTU21D;52764;51.036;5.852;2023-05-10T13:07:06;24.21;50.53
65995;HTU21D;52764;51.036;5.852;2023-05-10T13:09:32;24.21;49.16
65995;HTU21D;52764;51.036;5.852;2023-05-10T13:11:58;24.17;49.08
65995;HTU21D;52764;51.036;5.852;2023-05-10T13:14:24;24.17;49.08
65995;HTU21D;52764;51.036;5.852;2023-05-10T13:16:50;24.16;49.12
65995;HTU21D;52764;51.036;5.852;2023-05-10T13:19:16;24.12;49.32
65995;HTU21D;52764;51.036;5.852;2023-05-10T13:21:43;24.12;48.86
65995;HTU21D;52764;51.036;5.852;2023-05-10T13:24:10;24.21;48.81
65995;HTU21D;52764;51.036;5.852;2023-05-10T13:26:39;24.31;48.73
65995;HTU21D;52764;51.036;5.852;2023-05-10T13:29:06;24.32;48.68
65995;HTU21D;52764;51.036;5.852;2023-05-10T13:31:33;24.24;48.54
65995;HTU21D;52764;51.036;5.852;2023-05-10T13:33:58;24.23;47.92
65995;HTU21D;52764;51.036;5.852;2023-05-10T13:36:24;24.26;48.41
65995;HTU21D;52764;51.036;5.852;2023-05-10T13:38:50;24.30;48.72
65995;HTU21D;52764;51.036;5.852;2023-05-10T13:41:16;24.17;48.92
65995;HTU21D;52764;51.036;5.852;2023-05-10T13:43:41;24.04;48.92
65995;HTU21D;52764;51.036;5.852;2023-05-10T13:46:07;29.47;49.14
65995;HTU21D;52764;51.036;5.852;2023-05-10T13:48:33;23.71;49.44
65995;HTU21D;52764;51.036;5.852;2023-05-10T13:50:59;23.65;49.51
65995;HTU21D;52764;51.036;5.852;2023-05-10T13:53:24;28.33;49.85
65995;HTU21D;52764;51.036;5.852;2023-05-10T13:55:50;23.69;49.42
65995;HTU21D;52764;51.036;5.852;2023-05-10T13:58:16;23.61;49.15
65995;HTU21D;52764;51.036;5.852;2023-05-10T14:00:41;23.54;49.40
65995;HTU21D;52764;51.036;5.852;2023-05-10T14:03:07;23.55;49.90
65995;HTU21D;52764;51.036;5.852;2023-05-10T14:05:36;23.59;49.98
65995;HTU21D;52764;51.036;5.852;2023-05-10T14:08:01;23.66;49.97
65995;HTU21D;52764;51.036;5.852;2023-05-10T14:10:29;23.67;49.60
65995;HTU21D;52764;51.036;5.852;2023-05-10T14:12:55;23.57;49.45
65995;HTU21D;52764;51.036;5.852;2023-05-10T14:15:21;23.41;50.18
65995;HTU21D;52764;51.036;5.852;2023-05-10T14:17:47;23.35;50.26
65995;HTU21D;52764;51.036;5.852;2023-05-10T14:20:13;23.24;50.83
65995;HTU21D;52764;51.036;5.852;2023-05-10T14:22:38;23.29;51.11
65995;HTU21D;52764;51.036;5.852;2023-05-10T14:25:05;23.17;51.36
65995;HTU21D;52764;51.036;5.852;2023-05-10T14:27:31;23.14;51.27
65995;HTU21D;52764;51.036;5.852;2023-05-10T14:29:57;23.13;51.11
65995;HTU21D;52764;51.036;5.852;2023-05-10T14:32:23;27.15;51.16
65995;HTU21D;52764;51.036;5.852;2023-05-10T14:34:49;23.09;51.00
65995;HTU21D;52764;51.036;5.852;2023-05-10T14:37:14;23.13;50.92
65995;HTU21D;52764;51.036;5.852;2023-05-10T14:39:40;23.22;50.86
65995;HTU21D;52764;51.036;5.852;2023-05-10T14:42:07;23.29;50.76
65995;HTU21D;52764;51.036;5.852;2023-05-10T14:44:33;23.31;50.63
65995;HTU21D;52764;51.036;5.852;2023-05-10T14:46:59;23.31;50.81
65995;HTU21D;52764;51.036;5.852;2023-05-10T14:49:25;23.28;50.75
65995;HTU21D;52764;51.036;5.852;2023-05-10T14:51:51;23.30;50.98
65995;HTU21D;52764;51.036;5.852;2023-05-10T14:54:17;23.24;50.30
65995;HTU21D;52764;51.036;5.852;2023-05-10T14:56:43;23.23;52.08
65995;HTU21D;52764;51.036;5.852;2023-05-10T14:59:09;23.21;50.85
65995;HTU21D;52764;51.036;5.852;2023-05-10T15:01:34;23.20;51.21
65995;HTU21D;52764;51.036;5.852;2023-05-10T15:04:05;23.14;51.17
65995;HTU21D;52764;51.036;5.852;2023-05-10T15:06:32;23.08;51.60
65995;HTU21D;52764;51.036;5.852;2023-05-10T15:08:59;23.11;51.69
65995;HTU21D;52764;51.036;5.852;2023-05-10T15:11:25;23.16;52.17
65995;HTU21D;52764;51.036;5.852;2023-05-10T15:13:51;23.24;51.75
65995;HTU21D;52764;51.036;5.852;2023-05-10T15:16:17;23.25;51.77
65995;HTU21D;52764;51.036;5.852;2023-05-10T15:18:42;23.22;51.65
65995;HTU21D;52764;51.036;5.852;2023-05-10T15:21:09;23.10;51.89
65995;HTU21D;52764;51.036;5.852;2023-05-10T15:23:34;23.08;52.08
65995;HTU21D;52764;51.036;5.852;2023-05-10T15:26:01;23.07;52.07
65995;HTU21D;52764;51.036;5.852;2023-05-10T15:28:27;23.08;52.37
65995;HTU21D;52764;51.036;5.852;2023-05-10T15:30:53;23.07;52.33
65995;HTU21D;52764;51.036;5.852;2023-05-10T15:33:18;23.06;52.84
65995;HTU21D;52764;51.036;5.852;2023-05-10T15:35:44;22.98;53.29
65995;HTU21D;52764;51.036;5.852;2023-05-10T15:38:10;22.91;53.56
65995;HTU21D;52764;51.036;5.852;2023-05-10T15:40:36;22.85;54.17
65995;HTU21D;52764;51.036;5.852;2023-05-10T15:43:01;22.84;54.24
65995;HTU21D;52764;51.036;5.852;2023-05-10T15:45:27;22.88;54.15
65995;HTU21D;52764;51.036;5.852;2023-05-10T15:47:53;22.81;53.76
65995;HTU21D;52764;51.036;5.852;2023-05-10T15:50:18;26.40;53.69